Grissom ARB Airport
KGUS : now visible

Airfield :











YOU CAN JOIN US ON...

 
LOGIN :

Register | Disclaimer

   EN    FR    IT 

 









Legend :    VFR   Marginal VFR   IFR   Intensive IFR   Very Intensive IFR
Visi :
Ceiling :
>= 8 km
>= 3000ft
5 to 8 km
1000 to 3000 ft
1500m to 5 km
500 to 1000 ft
800 to 1500m
200 to 500 ft
< 800m
< 200 ft
Symbols :   Thunderstorms  Fog  Heavy snow  Heavy precipitations  Wind > 20 kt






- Airport Elevation : 812 ft


KGUS - Grissom ARB

CURRENT METAR :
  • 181051Z AUTO 17012G20KT 10SM -RA BKN012 OVC018 01/01 A2987 RMK AO2 RAE08UPB08E10RAB10E22UPB22E27RAB27E30UPB30E35RAB35E37UPB37E39 RAB39 CIG 012V016 CIG 008 RWY23 SLP126 $

EXPIRED METARs :
  • 181036Z AUTO 15014G29KT 9SM -RA BKN009 OVC016 01/01 A2988 RMK AO2 RAE08UPB08E10RAB10E22UPB22E27RAB27E30UPB30E35RAB35 CIG 007V009 PRESFR SLP130 $
  • 180956Z AUTO 16004KT 6SM -RA OVC007 01/01 A2993 RMK AO2 UPE0856RAB0856E33UPB33E42RAB42 CIG 006 RWY23 PRESFR SLP147 P0022 T00050005 $
  • 180946Z AUTO 16005KT 6SM -RA OVC007 00/00 A2995 RMK AO2 UPE0856RAB0856E33UPB33E42RAB42 CIG 006 RWY23 SLP154 $
  • 180911Z AUTO 15004KT 6SM RA BKN009 OVC018 00/00 A2998 RMK AO2 UPE0856RAB0856 PRESFR SLP164 $
  • 180856Z AUTO 15005KT 8SM -UP BKN010 OVC016 00/00 A3000 RMK AO2 UPE10FZRAB10E52RAB52E54UPB54 CIG 008 RWY23 SLP171 P0009 60017 T00020002 57056 $
  • 180830Z AUTO 14005KT 10SM -FZRA BKN012 OVC022 00/00 A3002 RMK AO2 UPE10FZRAB10 CIG 012V021 BKN V SCT CIG 010 RWY23 SLP178 $
  • 180810Z AUTO 15006KT 9SM -FZRA SCT013 OVC024 00/00 A3003 RMK AO2 UPE10FZRAB10 SLP181 $

TAF AMD TAF KGUS
Valid from the 18 at 09:00 until the 19 at 09:00 UTC


180943Z 1809/1909 11005KT 9000 -RA BKN009 620459 510103 QNH2997INS
TEMPO 1809/1812 4800 -FZRA OVC007 690001 620208
BECMG 1811/1812 20015G25KT 3200 -RA OVC005 620809 520003 QNH2971INS
BECMG 1819/1820 26025G35KT 4800 -SN BLSN BKN003 OVC008 620039 520003 QNH2976INS
BECMG 1822/1823 28025G35KT 6000 -SN BLSN OVC015 620159 520003 QNH2984INS
BECMG 1905/1906 29015G25KT 9999 NSW SCT030 QNH3000INS TX07/1818Z TNM05/1903Z



MET'MAP, your aeronautical weather chart ! - Copyright ORBIFLY December 2007 - Disclaimer

ORBIFLY MET'MAP TEAM :

Programming & Development : Alexandra Zaïnal
Concept & original design : Baudouin d'Aumeries
Assistance for programming : Marc-Olivier Méhu
Technical & hardware support : Manuel Goepfert

Contact : metmap@orbifly.com




SOURCES & CREDITS :

   NOAA       Earth
Advisory